Barbados Meteorological Services
Auto gathered TAF list
Powered by Apparatus software
For Flight BA2154
Contact Number 1-(246)-535-0021/2/3/4/5/6
WEB: http://www.barbadosweather.org

**********************************************

2017/07/27 18:29
TAF TBPB 271700Z 2718/2818 11012KT 9999 SCT018 PROB30
TEMPO 2718/2722 SHRA BKN014 FEW016CB PROB30
TEMPO 2802/2808 SHRA BKN014


**********************************************
2017/07/27 18:27
TAF TAPA 271820Z 2718/2818 11007KT 9999 SCT021 PROB40
TEMPO 2718/2812 4000 SHRA FEW012CB BKN014


**********************************************
2017/07/27 21:36
TAF
AMD TAF
AMD LPPR 272130Z 2721/2818 35010KT 9999 BKN006 PROB30 2722/2803 VRB03KT 0600 FG VV001
BECMG 2803/2806 SCT008 PROB30
TEMPO 2806/2809 BKN008
BECMG 2809/2812 30010KT FEW030


**********************************************
2017/07/27 18:18
TAF LPPD 271700Z 2718/2818 21008KT 8000 SCT005 BKN010
TEMPO 2718/2808 0300 DZ FG VV001 PROB30
TEMPO 2718/2724 9999 FEW006 SCT012
BECMG 2721/2724 VRB05KT
BECMG 2808/2811 22008KT 9999 FEW008 BKN025 PROB30
TEMPO 2808/2818 3000 DZRA BR SCT004 BKN008


**********************************************
2017/07/27 18:08
TAF LPLA 271705Z 2718/2818 03008KT 9999 SCT014 BKN030 PROB30
TEMPO 2718/2721 6000 -DZ SCT008 BKN014
BECMG 2721/2723 VRB05KT FEW018 SCT035
BECMG 2809/2811 27008KT


**********************************************


**********************************************
2017/07/27 18:20
TAF LPAZ 271700Z 2718/2824 22008KT 9999 FEW008 SCT015
TEMPO 2718/2809 SCT008 BKN015 PROB30
TEMPO 2718/2809 3000 DZRA BR SCT002 BKN004
BECMG 2809/2812 SCT012


**********************************************
2017/07/27 18:27
TAF LEVT 271700Z 2718/2818 VRB04KT CAVOK TX31/2815Z TN13/2805Z
TEMPO 2718/2720 02010KT
TEMPO 2721/2808 BKN010 PROB30
TEMPO 2723/2806 0600 BCFG BKN002
TEMPO 2812/2818 02011KT


**********************************************
2017/07/27 18:27
TAF LEMD 271700Z 2718/2824 22010G20KT CAVOK TX38/2816Z TN20/2806Z PROB40
TEMPO 2719/2721 27010KT
BECMG 2719/2721 VRB05KT
BECMG 2811/2813 22010G20KT
BECMG 2820/2822 VRB05KT


**********************************************
2017/07/27 18:27
TAF ELLX 271700Z 2718/2824 22007KT 9999 BKN020
TEMPO 2800/2807 5000 BR BKN006
TEMPO 2809/2818 24013KT SCT030


**********************************************
2017/07/27 18:15
TAF EGPK 271701Z 2718/2818 21012KT 9999 FEW020 SCT040
TEMPO 2718/2721 7000 SHRA
TEMPO 2721/2808 22015G25KT 6000 RA BKN014
TEMPO 2812/2818 6000 SHRA


**********************************************
2017/07/27 19:57
TAF
AMD TAF
AMD EGLL 271953Z 2719/2824 23010KT 9999 SCT030
TEMPO 2719/2721 3000 +SHRA BKN014 PROB30
TEMPO 2809/2816 24015G25KT
TEMPO 2816/2824 24015G25KT 7000 -RA BKN012 PROB30
TEMPO 2822/2824 3500 RADZ BKN008


**********************************************
2017/07/27 18:15
TAF TAF EGKK 271649Z 2718/2824 24008KT 9999 SCT025 PROB30
TEMPO 2814/2818 23015G25KT 7000 RA BKN014
BECMG 2818/2821 BKN012 PROB30
TEMPO 2818/2824 23015G25KT 4000 +RA BKN008


**********************************************
2017/07/27 18:37
TAF
AMD EGFF 271826Z 2718/2818 25015KT 9999 SCT020
TEMPO 2718/2816 26018G28KT 8000 -SHRA PROB30
TEMPO 2718/2720 4000 SHRA BKN014
BECMG 2814/2817 19014KT BKN014
TEMPO 2816/2818 9000 -RA PROB30
TEMPO 2816/2818 RA


**********************************************
2017/07/27 18:15
TAF EGCC 271653Z 2718/2824 24012KT 9999 SCT040
TEMPO 2718/2721 7000 SHRA
BECMG 2816/2819 18012KT
TEMPO 2816/2824 6000 RA BKN014 PROB30
TEMPO 2822/2824 19015G25KT 3000 RADZ BKN008


**********************************************
2017/07/27 18:27
TAF TAF EDDF 271700Z 2718/2824 21006KT 9999 SCT040
TEMPO 2718/2724 SHRA SCT030TCU PROB30
TEMPO 2718/2724 TSRA BKN025CB
BECMG 2807/2809 23012KT
TEMPO 2810/2818 24015G25KT


**********************************************
2017/07/27 18:27
TAF TAF EBBR 271720Z 2718/2824 25007KT 9999 FEW045 PROB30
TEMPO 2809/2815 24015G25KT


**********************************************